»·PEaware :: N4657 KSBA-KBUR

N4657 :: KSBA-KBUR

FLIGHT INFORMATION

Flight Status: Arrived
Operator: Privately registered:
United States
More flights under this callsign
Pilot: Daniel P. (20187)
Aircraft: PILATUS PC-12 EAGLE
(PC12)
More flights by this aircraft type
Origin: KSBA Santa Barbara Mun
United States
Destination: KBUR Bob Hope-Burbank
United States
More flights between these airports :: More routes between these airports
Route:
File this flight plan on PilotEdge
Remarks: cat8
Altitude:
(Current/Filed)
7,500ft
Speed:
(Current/Filed)
150kts
Departed: 02-Sep-18 10:52 AM
Arrived: 02-Sep-18 11:24 AM
Distance/Time
Traveled:
75nm/0:32
Distance/Time
To Go:
Arrived

Flight Plot

Page will automatically refresh every two minutes.


Map Options




Map Legend


Flown Route
Filed Route
Departure Airport
Arrival Airport
Navaid (VOR, NDB)
Fix

Horizontal Profiles

Position Reports

Time Latitude Longitude Heading Altitude Ground
Speed
02-Sep-18 10:26 34.422650 -119.835588 340 10ft 0kts
02-Sep-18 10:27 34.422650 -119.835588 340 10ft 0kts
02-Sep-18 10:28 34.422650 -119.835588 340 10ft 0kts
02-Sep-18 10:29 34.422650 -119.835588 340 10ft 0kts
02-Sep-18 10:30 34.422650 -119.835588 340 10ft 0kts
02-Sep-18 10:31 34.422650 -119.835588 340 10ft 0kts
02-Sep-18 10:32 34.422650 -119.835588 340 10ft 0kts
02-Sep-18 10:33 34.422650 -119.835588 340 10ft 0kts
02-Sep-18 10:34 34.422650 -119.835588 340 10ft 0kts
02-Sep-18 10:35 34.422650 -119.835588 340 10ft 0kts
02-Sep-18 10:36 34.422650 -119.835588 340 10ft 0kts
02-Sep-18 10:37 34.422650 -119.835588 340 10ft 0kts
02-Sep-18 10:38 34.422650 -119.835588 340 10ft 0kts
02-Sep-18 10:39 34.422650 -119.835588 340 10ft 0kts
02-Sep-18 10:40 34.422650 -119.835588 340 10ft 0kts
02-Sep-18 10:41 34.422650 -119.835588 340 10ft 0kts
02-Sep-18 10:42 34.422651 -119.835588 340 10ft 0kts
02-Sep-18 10:43 34.422651 -119.835588 340 10ft 0kts
02-Sep-18 10:44 34.422651 -119.835588 340 10ft 0kts
02-Sep-18 10:45 34.422781 -119.835878 268 10ft 4kts
02-Sep-18 10:46 34.423857 -119.837489 345 12ft 12kts
02-Sep-18 10:47 34.426959 -119.838445 344 11ft 4kts
02-Sep-18 10:48 34.429853 -119.839309 348 14ft 14kts
02-Sep-18 10:49 34.430635 -119.839651 298 14ft 0kts
02-Sep-18 10:50 34.430635 -119.839651 298 14ft 0kts
02-Sep-18 10:51 34.430635 -119.839651 298 14ft 0kts
02-Sep-18 10:52 34.430635 -119.839651 298 14ft 0kts
02-Sep-18 10:53 34.421242 -119.837278 161 158ft 118kts
02-Sep-18 10:54 34.386619 -119.825380 163 1299ft 150kts
02-Sep-18 10:55 34.345975 -119.807147 121 1294ft 149kts
02-Sep-18 10:56 34.347628 -119.762172 88 1298ft 130kts
02-Sep-18 10:57 34.345827 -119.713281 94 1312ft 162kts
02-Sep-18 10:58 34.340882 -119.658789 96 1563ft 160kts
02-Sep-18 10:59 34.335419 -119.603116 96 3569ft 170kts
02-Sep-18 11:00 34.329616 -119.546635 96 5560ft 170kts
02-Sep-18 11:01 34.323766 -119.490054 96 7440ft 177kts
02-Sep-18 11:02 34.319599 -119.419814 88 7502ft 229kts
02-Sep-18 11:03 34.321449 -119.351053 86 7497ft 185kts
02-Sep-18 11:04 34.324911 -119.292601 85 7499ft 173kts
02-Sep-18 11:05 34.328309 -119.235383 85 7499ft 169kts
02-Sep-18 11:06 34.333105 -119.179088 82 7499ft 168kts
02-Sep-18 11:07 34.335391 -119.122692 92 7499ft 167kts
02-Sep-18 11:08 34.333116 -119.066397 92 7499ft 167kts
02-Sep-18 11:09 34.328729 -119.010295 98 7499ft 167kts
02-Sep-18 11:10 34.320252 -118.954935 104 7499ft 167kts
02-Sep-18 11:11 34.308430 -118.900687 104 7499ft 167kts
02-Sep-18 11:12 34.295110 -118.847381 112 7536ft 166kts
02-Sep-18 11:13 34.277034 -118.795775 115 7536ft 167kts
02-Sep-18 11:14 34.256656 -118.745461 112 7536ft 167kts
02-Sep-18 11:15 34.238769 -118.693627 109 7536ft 167kts
02-Sep-18 11:16 34.226553 -118.639249 104 7500ft 169kts
02-Sep-18 11:18 34.216692 -118.587273 101 7505ft 155kts
02-Sep-18 11:19 34.209327 -118.548411 102 7003ft 79kts
02-Sep-18 11:20 34.203939 -118.520726 102 5527ft 87kts
02-Sep-18 11:21 34.198339 -118.491713 101 4337ft 88kts
02-Sep-18 11:22 34.197878 -118.464644 87 3050ft 80kts
02-Sep-18 11:23 34.198104 -118.438329 89 2095ft 78kts
02-Sep-18 11:24 34.198555 -118.410293 88 1556ft 85kts
02-Sep-18 11:25 34.198048 -118.380973 90 992ft 87kts
02-Sep-18 11:26 34.198167 -118.360354 1 716ft 4kts
02-Sep-18 11:27 34.198898 -118.360291 62 718ft 5kts
02-Sep-18 11:28 34.198893 -118.358630 87 715ft 0kts
02-Sep-18 11:29 34.199855 -118.359187 295 720ft 7kts
02-Sep-18 11:30 34.200968 -118.359827 293 726ft 0kts
02-Sep-18 11:31 34.200968 -118.359826 293 726ft 0kts
02-Sep-18 11:32 34.200968 -118.359826 293 726ft 0kts
02-Sep-18 11:33 34.200968 -118.359826 293 726ft 0kts
02-Sep-18 11:34 34.200968 -118.359826 293 726ft 0kts
02-Sep-18 11:35 34.200968 -118.359826 293 726ft 0kts
02-Sep-18 11:36 34.200968 -118.359826 293 726ft 0kts
02-Sep-18 11:37 34.200968 -118.359826 293 726ft 0kts
02-Sep-18 11:38 34.200968 -118.359826 293 726ft 0kts
02-Sep-18 11:39 34.200968 -118.359826 293 726ft 0kts
02-Sep-18 11:40 34.200968 -118.359826 293 726ft 0kts

Navigation Log

Ident Type
1. KSBA Airport
2. KBUR Airport